Time;durP1;ratioP1;P1;durP2;ratioP2;P2;SDS_P1;SDS_P2;PMS_P1;PMS_P2;Temp;Humidity;BMP_temperature;BMP_pressure;BME280_temperature;BME280_humidity;BME280_pressure;Samples;Min_cycle;Max_cycle;Signal;HPM_P1;HPM_P2
2022/02/12 00:00:12;;;;;;;5.85;2.08;;;;;;;;;;5007084;28;20068;-65
2022/02/12 00:02:40;;;;;;;6.60;2.92;;;;;;;;;;5006482;28;20510;-65
2022/02/12 00:05:18;;;;;;;5.20;2.00;;;;;;;;;;1604241;28;10023438;-66
2022/02/12 00:07:48;;;;;;;4.93;2.20;;;;;;;;;;3962069;28;10000955;-65
2022/02/12 00:10:16;;;;;;;3.65;2.13;;;;;;;;;;5009149;28;20462;-65
2022/02/12 00:12:45;;;;;;;3.88;1.92;;;;;;;;;;5008459;28;20466;-65
2022/02/12 00:15:13;;;;;;;4.22;2.38;;;;;;;;;;5008472;28;20092;-65
2022/02/12 00:17:41;;;;;;;6.40;2.00;;;;;;;;;;5008217;28;20081;-65
2022/02/12 00:20:11;;;;;;;4.18;2.42;;;;;;;;;;5008023;28;20133;-65
2022/02/12 00:22:39;;;;;;;6.60;2.92;;;;;;;;;;4992820;28;20104;-65
2022/02/12 00:25:09;;;;;;;7.68;2.38;;;;;;;;;;5008232;28;20476;-65
2022/02/12 00:27:38;;;;;;;4.85;2.20;;;;;;;;;;5006960;28;20129;-65
2022/02/12 00:30:07;;;;;;;4.47;2.25;;;;;;;;;;5008716;28;20042;-65
2022/02/12 00:32:35;;;;;;;3.67;2.22;;;;;;;;;;5008182;28;20133;-65
2022/02/12 00:35:04;;;;;;;6.63;2.42;;;;;;;;;;5004411;28;20046;-65
2022/02/12 00:37:32;;;;;;;5.20;2.67;;;;;;;;;;5008137;28;20136;-65
2022/02/12 00:40:01;;;;;;;3.17;2.35;;;;;;;;;;5008903;28;20046;-66
2022/02/12 00:42:30;;;;;;;6.40;2.70;;;;;;;;;;5006645;28;20100;-66
2022/02/12 00:45:00;;;;;;;4.93;2.53;;;;;;;;;;5007213;28;20421;-66
2022/02/12 00:47:29;;;;;;;4.90;2.40;;;;;;;;;;5006653;28;20137;-66
2022/02/12 00:49:57;;;;;;;5.65;2.33;;;;;;;;;;5007627;28;20609;-66
2022/02/12 00:52:25;;;;;;;7.15;2.58;;;;;;;;;;5007482;28;20126;-66
2022/02/12 00:54:53;;;;;;;4.45;1.95;;;;;;;;;;5008584;28;20100;-66
2022/02/12 00:57:22;;;;;;;3.15;2.55;;;;;;;;;;5007528;28;20096;-66
2022/02/12 00:59:51;;;;;;;9.50;3.17;;;;;;;;;;5009077;28;20129;-66
2022/02/12 01:02:19;;;;;;;7.03;2.40;;;;;;;;;;5008108;28;20082;-66
2022/02/12 01:04:48;;;;;;;6.43;2.95;;;;;;;;;;5007847;28;20476;-66
2022/02/12 01:07:16;;;;;;;7.88;2.78;;;;;;;;;;5007742;28;20050;-66
2022/02/12 01:09:44;;;;;;;4.25;2.70;;;;;;;;;;5005022;28;20145;-66
2022/02/12 01:12:13;;;;;;;5.72;2.60;;;;;;;;;;5008396;28;20490;-66
2022/02/12 01:14:41;;;;;;;5.47;2.25;;;;;;;;;;5006853;28;20133;-66
2022/02/12 01:17:11;;;;;;;5.13;3.00;;;;;;;;;;5005507;28;20489;-66
2022/02/12 01:19:40;;;;;;;3.33;2.72;;;;;;;;;;5007901;28;20509;-66
2022/02/12 01:22:08;;;;;;;5.35;2.58;;;;;;;;;;5009737;28;21724;-66
2022/02/12 01:24:39;;;;;;;13.57;3.45;;;;;;;;;;5012172;28;20069;-66
2022/02/12 01:27:07;;;;;;;6.45;2.92;;;;;;;;;;5001407;28;20054;-66
2022/02/12 01:29:37;;;;;;;4.22;2.47;;;;;;;;;;5010769;28;20046;-66
2022/02/12 01:32:05;;;;;;;5.78;2.92;;;;;;;;;;5011223;28;20558;-66
2022/02/12 01:34:35;;;;;;;5.72;2.97;;;;;;;;;;5011438;28;20513;-66
2022/02/12 01:37:04;;;;;;;6.22;3.20;;;;;;;;;;5010652;28;20156;-66
2022/02/12 01:39:33;;;;;;;7.13;2.50;;;;;;;;;;5010849;28;20149;-66
2022/02/12 01:42:01;;;;;;;3.60;2.58;;;;;;;;;;5010506;28;20229;-66
2022/02/12 01:44:31;;;;;;;8.43;2.63;;;;;;;;;;5011254;28;20413;-66
2022/02/12 01:46:59;;;;;;;4.90;2.40;;;;;;;;;;5010950;28;20045;-66
2022/02/12 01:49:28;;;;;;;4.38;3.00;;;;;;;;;;5011271;28;20459;-66
2022/02/12 01:51:58;;;;;;;6.95;2.63;;;;;;;;;;5011542;28;20046;-66
2022/02/12 01:54:28;;;;;;;6.15;3.03;;;;;;;;;;5010364;28;20674;-66
2022/02/12 01:56:57;;;;;;;4.65;2.45;;;;;;;;;;5010136;28;20480;-66
2022/02/12 01:59:25;;;;;;;6.57;3.15;;;;;;;;;;5006536;28;20129;-66
2022/02/12 02:01:54;;;;;;;4.50;2.40;;;;;;;;;;5005636;28;20081;-66
2022/02/12 02:04:36;;;;;;;5.27;1.98;;;;;;;;;;3179449;28;10003176;-66
2022/02/12 02:07:06;;;;;;;4.57;2.75;;;;;;;;;;2934009;28;10001707;-66
2022/02/12 02:09:34;;;;;;;8.43;2.22;;;;;;;;;;5010607;28;20180;-66
2022/02/12 02:12:03;;;;;;;5.78;3.03;;;;;;;;;;5011046;28;20515;-66
2022/02/12 02:14:32;;;;;;;6.80;2.58;;;;;;;;;;5010469;28;20133;-66
2022/02/12 02:17:00;;;;;;;10.60;3.15;;;;;;;;;;5009109;28;20185;-66
2022/02/12 02:19:30;;;;;;;3.58;2.33;;;;;;;;;;5010706;28;20077;-66
2022/02/12 02:21:59;;;;;;;6.00;2.25;;;;;;;;;;5010971;28;20097;-65
2022/02/12 02:24:29;;;;;;;6.25;2.55;;;;;;;;;;5009681;28;20164;-66
2022/02/12 02:27:05;;;;;;;6.88;2.50;;;;;;;;;;5009527;28;20775;-66
2022/02/12 02:29:33;;;;;;;8.85;3.15;;;;;;;;;;5009240;28;20060;-66
2022/02/12 02:32:01;;;;;;;5.03;2.97;;;;;;;;;;5010254;28;20053;-66
2022/02/12 02:34:30;;;;;;;8.55;3.13;;;;;;;;;;5009377;28;20038;-66
2022/02/12 02:36:58;;;;;;;6.53;2.90;;;;;;;;;;5008903;28;20049;-66
2022/02/12 02:39:26;;;;;;;8.90;3.05;;;;;;;;;;5010636;28;20127;-66
2022/02/12 02:41:56;;;;;;;6.50;2.88;;;;;;;;;;5008738;28;20133;-66
2022/02/12 02:44:24;;;;;;;8.52;3.35;;;;;;;;;;5003566;28;20125;-66
2022/02/12 02:46:53;;;;;;;7.20;3.55;;;;;;;;;;5008596;28;20061;-66
2022/02/12 02:49:21;;;;;;;6.57;2.90;;;;;;;;;;5010363;28;20526;-66
2022/02/12 02:57:23;;;;;;;6.95;2.85;;;;;;;;;;5005932;28;20425;-66
2022/02/12 02:59:51;;;;;;;4.25;2.20;;;;;;;;;;5009547;28;20494;-66
2022/02/12 03:02:20;;;;;;;4.38;2.67;;;;;;;;;;5008653;28;20042;-66
2022/02/12 03:04:48;;;;;;;4.85;2.95;;;;;;;;;;5010492;28;20224;-66
2022/02/12 03:07:17;;;;;;;8.55;2.80;;;;;;;;;;5007496;28;20547;-66
2022/02/12 03:09:45;;;;;;;8.02;2.92;;;;;;;;;;5011028;28;20133;-66
2022/02/12 03:12:13;;;;;;;9.98;3.08;;;;;;;;;;5007059;28;20128;-66
2022/02/12 03:14:43;;;;;;;8.00;2.95;;;;;;;;;;5009225;28;20472;-66
2022/02/12 03:17:11;;;;;;;6.70;2.88;;;;;;;;;;5008880;28;20132;-66
2022/02/12 03:19:40;;;;;;;5.53;2.95;;;;;;;;;;5009407;28;20577;-66
2022/02/12 03:22:09;;;;;;;5.53;3.17;;;;;;;;;;5009257;28;20406;-66
2022/02/12 03:24:38;;;;;;;6.38;3.03;;;;;;;;;;5002847;28;20569;-66
2022/02/12 03:27:07;;;;;;;5.95;3.20;;;;;;;;;;5003782;28;20529;-66
2022/02/12 03:29:36;;;;;;;5.55;3.03;;;;;;;;;;5001898;28;20054;-66
2022/02/12 03:32:06;;;;;;;6.57;3.10;;;;;;;;;;5007495;28;20121;-66
2022/02/12 03:34:34;;;;;;;4.28;2.83;;;;;;;;;;5010194;28;20045;-66
2022/02/12 03:37:02;;;;;;;8.00;3.45;;;;;;;;;;5008743;28;20084;-66
2022/02/12 03:39:31;;;;;;;5.47;3.03;;;;;;;;;;5009836;28;20071;-66
2022/02/12 03:41:59;;;;;;;4.18;2.85;;;;;;;;;;5005632;28;20089;-66
2022/02/12 03:44:27;;;;;;;10.98;3.63;;;;;;;;;;5008485;28;20141;-65
2022/02/12 03:46:55;;;;;;;7.97;3.58;;;;;;;;;;5006345;28;20428;-66
2022/02/12 03:49:25;;;;;;;8.55;2.92;;;;;;;;;;5009068;28;20137;-66
2022/02/12 03:51:53;;;;;;;10.00;3.90;;;;;;;;;;5009377;28;20128;-66
2022/02/12 03:54:21;;;;;;;6.90;3.53;;;;;;;;;;5008321;28;20096;-66
2022/02/12 03:56:50;;;;;;;6.15;3.70;;;;;;;;;;5007710;28;20069;-66
2022/02/12 03:59:19;;;;;;;8.85;3.22;;;;;;;;;;4989731;28;20050;-66
2022/02/12 04:01:47;;;;;;;8.38;3.70;;;;;;;;;;4988486;28;20038;-66
2022/02/12 04:04:15;;;;;;;6.95;3.30;;;;;;;;;;4988424;28;20069;-66
2022/02/12 04:06:45;;;;;;;8.27;3.80;;;;;;;;;;4992994;28;20455;-66
2022/02/12 04:09:13;;;;;;;8.77;4.00;;;;;;;;;;4992351;28;20082;-66
2022/02/12 04:11:41;;;;;;;9.25;3.95;;;;;;;;;;4988889;28;20433;-66
2022/02/12 04:14:10;;;;;;;10.52;3.22;;;;;;;;;;4986962;28;20050;-66
2022/02/12 04:16:38;;;;;;;10.23;3.78;;;;;;;;;;4978139;28;20145;-66
2022/02/12 04:19:06;;;;;;;6.70;3.30;;;;;;;;;;4989248;28;20074;-66
2022/02/12 04:21:35;;;;;;;9.02;3.47;;;;;;;;;;4989381;28;20059;-66
2022/02/12 04:24:05;;;;;;;8.90;3.35;;;;;;;;;;4989161;28;20133;-66
2022/02/12 04:26:33;;;;;;;8.75;2.78;;;;;;;;;;4987762;28;20145;-66
2022/02/12 04:29:01;;;;;;;9.38;3.20;;;;;;;;;;4988993;28;20153;-66
2022/02/12 04:31:29;;;;;;;9.88;3.42;;;;;;;;;;4989227;28;20046;-66
2022/02/12 04:33:57;;;;;;;8.60;2.92;;;;;;;;;;4985979;28;20042;-66
2022/02/12 04:36:26;;;;;;;7.15;3.65;;;;;;;;;;4989171;28;20061;-66
2022/02/12 04:38:54;;;;;;;7.60;3.42;;;;;;;;;;4989494;28;20046;-66
2022/02/12 04:41:24;;;;;;;4.53;2.45;;;;;;;;;;4990031;28;20077;-66
2022/02/12 04:44:00;;;;;;;8.15;3.60;;;;;;;;;;4989114;28;20078;-65
2022/02/12 04:46:28;;;;;;;3.85;2.58;;;;;;;;;;4988550;28;21489;-66
2022/02/12 04:48:57;;;;;;;7.07;3.47;;;;;;;;;;4988008;28;20085;-66
2022/02/12 04:51:25;;;;;;;7.03;3.75;;;;;;;;;;4988998;28;20105;-66
2022/02/12 04:53:53;;;;;;;7.45;3.45;;;;;;;;;;4988722;28;20054;-66
2022/02/12 04:56:23;;;;;;;9.32;3.47;;;;;;;;;;4988648;28;20596;-66
2022/02/12 04:58:51;;;;;;;7.05;3.25;;;;;;;;;;5008869;28;20128;-66
2022/02/12 05:01:24;;;;;;;7.13;2.63;;;;;;;;;;5010333;28;20049;-66
2022/02/12 05:03:53;;;;;;;6.15;3.10;;;;;;;;;;5007160;28;20406;-66
2022/02/12 05:06:22;;;;;;;4.72;2.80;;;;;;;;;;5010293;28;20521;-66
2022/02/12 05:08:50;;;;;;;8.63;3.30;;;;;;;;;;5012345;28;20128;-66
2022/02/12 05:11:18;;;;;;;4.30;2.60;;;;;;;;;;5011670;28;20137;-66
2022/02/12 05:13:48;;;;;;;5.97;3.10;;;;;;;;;;5010955;28;20141;-66
2022/02/12 05:16:32;;;;;;;3.45;1.98;;;;;;;;;;4106886;28;10002045;-66
2022/02/12 05:19:01;;;;;;;6.43;3.35;;;;;;;;;;1725212;28;10002087;-66
2022/02/12 05:21:29;;;;;;;5.60;2.90;;;;;;;;;;5011543;28;20513;-66
2022/02/12 05:23:58;;;;;;;3.95;2.40;;;;;;;;;;5010303;28;20132;-66
2022/02/12 05:26:26;;;;;;;4.60;2.88;;;;;;;;;;5009717;28;20132;-66
2022/02/12 05:28:56;;;;;;;4.57;2.70;;;;;;;;;;5010186;28;20073;-66
2022/02/12 05:31:24;;;;;;;7.00;2.80;;;;;;;;;;5010426;28;20054;-66
2022/02/12 05:33:53;;;;;;;6.15;3.30;;;;;;;;;;5012250;28;20140;-66
2022/02/12 05:36:21;;;;;;;6.38;2.53;;;;;;;;;;5009642;28;20125;-66
2022/02/12 05:38:49;;;;;;;8.68;3.08;;;;;;;;;;5011195;28;20147;-65
2022/02/12 05:41:18;;;;;;;7.07;2.60;;;;;;;;;;5008331;28;20073;-66
2022/02/12 05:43:46;;;;;;;5.07;3.15;;;;;;;;;;5011594;28;20430;-66
2022/02/12 05:46:16;;;;;;;9.50;3.08;;;;;;;;;;5010020;28;20054;-66
2022/02/12 05:48:47;;;;;;;4.85;2.75;;;;;;;;;;5011192;28;20042;-66
2022/02/12 05:51:18;;;;;;;4.80;2.90;;;;;;;;;;5010811;28;20137;-66
2022/02/12 05:53:46;;;;;;;9.45;3.90;;;;;;;;;;5009818;28;20153;-66
2022/02/12 05:56:15;;;;;;;5.55;3.65;;;;;;;;;;5009693;28;20128;-66
2022/02/12 05:58:43;;;;;;;8.93;2.97;;;;;;;;;;5001291;28;20586;-66
2022/02/12 06:01:12;;;;;;;6.00;2.88;;;;;;;;;;5010583;28;20125;-66
2022/02/12 06:03:41;;;;;;;5.75;2.90;;;;;;;;;;5010694;28;20064;-66
2022/02/12 06:06:09;;;;;;;4.93;2.70;;;;;;;;;;5010211;28;20119;-65
2022/02/12 06:08:38;;;;;;;4.63;2.80;;;;;;;;;;5009633;28;20467;-65
2022/02/12 06:11:06;;;;;;;5.45;2.42;;;;;;;;;;5005825;28;20135;-65
2022/02/12 06:13:34;;;;;;;6.22;3.20;;;;;;;;;;5010948;28;20141;-66
2022/02/12 06:16:07;;;;;;;7.53;3.47;;;;;;;;;;5003445;28;20053;-66
2022/02/12 06:18:37;;;;;;;6.95;2.60;;;;;;;;;;5007244;28;20137;-65
2022/02/12 06:21:09;;;;;;;5.18;2.45;;;;;;;;;;5007866;28;20054;-66
2022/02/12 06:23:38;;;;;;;5.68;2.42;;;;;;;;;;5006415;28;20053;-66
2022/02/12 06:26:07;;;;;;;5.18;2.58;;;;;;;;;;5004077;28;20050;-66
2022/02/12 06:28:36;;;;;;;5.40;2.70;;;;;;;;;;5006754;28;20487;-66
2022/02/12 06:31:07;;;;;;;7.03;3.03;;;;;;;;;;5003316;28;20160;-65
2022/02/12 06:33:35;;;;;;;3.45;2.28;;;;;;;;;;5004852;28;21406;-66
2022/02/12 06:36:06;;;;;;;6.03;2.63;;;;;;;;;;5004880;28;20042;-66
2022/02/12 06:38:36;;;;;;;4.82;2.30;;;;;;;;;;5005321;28;20196;-66
2022/02/12 06:41:07;;;;;;;8.43;3.03;;;;;;;;;;5004651;28;20049;-65
2022/02/12 06:43:35;;;;;;;4.72;2.38;;;;;;;;;;5004494;28;20068;-66
2022/02/12 06:46:07;;;;;;;4.38;2.72;;;;;;;;;;5002734;28;20139;-66
2022/02/12 06:48:36;;;;;;;4.25;2.53;;;;;;;;;;5002763;28;20148;-66
2022/02/12 06:51:07;;;;;;;11.05;3.05;;;;;;;;;;5004675;28;20058;-66
2022/02/12 06:53:36;;;;;;;8.43;2.88;;;;;;;;;;5004648;28;20137;-66
2022/02/12 06:56:07;;;;;;;6.10;2.22;;;;;;;;;;5005771;28;20760;-66
2022/02/12 06:58:40;;;;;;;5.47;2.80;;;;;;;;;;4994142;28;20057;-65
2022/02/12 07:01:25;;;;;;;4.53;2.08;;;;;;;;;;2829579;28;10003245;-66
2022/02/12 07:03:54;;;;;;;5.72;2.83;;;;;;;;;;3271075;28;10001382;-65
2022/02/12 07:06:23;;;;;;;5.47;2.03;;;;;;;;;;4993393;28;20588;-65
2022/02/12 07:08:54;;;;;;;4.35;2.08;;;;;;;;;;4989370;28;20161;-65
2022/02/12 07:11:22;;;;;;;4.13;2.40;;;;;;;;;;4995671;28;20134;-66
2022/02/12 07:13:50;;;;;;;3.67;2.47;;;;;;;;;;4988718;28;20090;-66
2022/02/12 07:16:19;;;;;;;6.00;2.70;;;;;;;;;;4988154;28;20050;-65
2022/02/12 07:18:48;;;;;;;4.32;2.42;;;;;;;;;;4988728;28;20054;-65
2022/02/12 07:21:17;;;;;;;5.60;3.08;;;;;;;;;;4988143;28;20051;-66
2022/02/12 07:23:45;;;;;;;6.63;3.25;;;;;;;;;;4983781;28;20558;-66
2022/02/12 07:26:15;;;;;;;4.93;2.53;;;;;;;;;;4986379;28;20057;-65
2022/02/12 07:28:43;;;;;;;4.60;2.85;;;;;;;;;;4988363;28;20132;-65
2022/02/12 07:31:13;;;;;;;4.78;2.88;;;;;;;;;;4986926;28;20052;-66
2022/02/12 07:33:41;;;;;;;4.35;2.72;;;;;;;;;;4987575;28;20131;-66
2022/02/12 07:36:11;;;;;;;5.97;2.35;;;;;;;;;;4987076;28;20066;-66
2022/02/12 07:38:40;;;;;;;6.45;2.83;;;;;;;;;;4987633;28;20058;-66
2022/02/12 07:41:08;;;;;;;5.60;2.72;;;;;;;;;;4984765;28;20133;-66
2022/02/12 07:43:38;;;;;;;3.63;2.53;;;;;;;;;;4986393;28;20062;-66
2022/02/12 07:46:06;;;;;;;8.70;3.75;;;;;;;;;;4986745;28;20054;-66
2022/02/12 07:48:34;;;;;;;6.72;3.67;;;;;;;;;;4987332;28;20050;-66
2022/02/12 07:51:07;;;;;;;6.18;3.25;;;;;;;;;;4985589;28;20050;-66
2022/02/12 07:53:36;;;;;;;5.40;2.88;;;;;;;;;;4986317;28;20088;-66
2022/02/12 07:56:07;;;;;;;5.22;3.38;;;;;;;;;;4987377;28;20088;-67
2022/02/12 07:58:41;;;;;;;11.88;3.17;;;;;;;;;;4988512;28;20058;-66
2022/02/12 08:01:10;;;;;;;7.40;3.80;;;;;;;;;;4989335;28;20061;-66
2022/02/12 08:03:38;;;;;;;6.30;3.17;;;;;;;;;;4979775;28;20097;-66
2022/02/12 08:07:27;;;;;;;7.15;3.08;;;;;;;;;;4990843;28;20046;-66
2022/02/12 08:08:55;;;;;;;8.00;3.53;;;;;;;;;;4990481;28;20442;-66
2022/02/12 08:11:26;;;;;;;6.85;3.55;;;;;;;;;;4989536;28;20485;-66
2022/02/12 08:13:55;;;;;;;6.85;3.42;;;;;;;;;;4988409;28;20046;-66
2022/02/12 08:16:24;;;;;;;8.45;3.53;;;;;;;;;;4983259;28;20569;-66
2022/02/12 08:18:52;;;;;;;7.82;4.05;;;;;;;;;;4987496;28;20054;-66
2022/02/12 08:21:21;;;;;;;6.38;3.38;;;;;;;;;;4989962;28;20074;-66
2022/02/12 08:23:50;;;;;;;8.10;4.43;;;;;;;;;;4989309;28;20161;-66
2022/02/12 08:26:18;;;;;;;6.43;3.80;;;;;;;;;;4989101;28;20046;-67
2022/02/12 08:28:47;;;;;;;8.05;4.18;;;;;;;;;;4989745;28;20073;-66
2022/02/12 08:31:16;;;;;;;9.70;3.60;;;;;;;;;;4984207;28;20046;-66
2022/02/12 08:33:45;;;;;;;6.95;3.75;;;;;;;;;;4987939;28;20494;-67
2022/02/12 08:36:13;;;;;;;7.18;4.13;;;;;;;;;;4992688;28;20108;-66
2022/02/12 08:38:41;;;;;;;8.73;3.50;;;;;;;;;;4993148;28;20144;-66
2022/02/12 08:41:12;;;;;;;7.20;3.67;;;;;;;;;;4992841;28;20483;-66
2022/02/12 08:43:41;;;;;;;6.53;3.60;;;;;;;;;;4993319;28;20061;-65
2022/02/12 08:46:09;;;;;;;5.90;4.00;;;;;;;;;;4992814;28;20097;-66
2022/02/12 08:48:39;;;;;;;8.75;4.80;;;;;;;;;;4992030;28;20132;-66
2022/02/12 08:51:08;;;;;;;12.00;5.00;;;;;;;;;;4992714;28;20494;-65
2022/02/12 08:53:36;;;;;;;10.40;3.67;;;;;;;;;;4992657;28;20109;-66
2022/02/12 08:56:07;;;;;;;9.43;4.00;;;;;;;;;;4991769;28;20046;-66
2022/02/12 08:58:36;;;;;;;8.27;4.20;;;;;;;;;;5005418;28;20542;-66
2022/02/12 09:01:08;;;;;;;5.78;3.83;;;;;;;;;;5011906;28;20092;-66
2022/02/12 09:03:36;;;;;;;8.55;4.32;;;;;;;;;;5010356;28;20104;-66
2022/02/12 09:06:07;;;;;;;8.30;4.35;;;;;;;;;;4634384;28;10001042;-68
2022/02/12 09:08:36;;;;;;;7.85;4.22;;;;;;;;;;689119;28;10002123;-66
2022/02/12 09:11:07;;;;;;;13.82;4.57;;;;;;;;;;5011322;28;20111;-66
2022/02/12 09:13:36;;;;;;;8.18;3.65;;;;;;;;;;5009630;28;20100;-66
2022/02/12 09:16:07;;;;;;;6.30;3.90;;;;;;;;;;5010163;28;20141;-66
2022/02/12 09:18:35;;;;;;;10.93;4.60;;;;;;;;;;5011172;28;20049;-66
2022/02/12 09:21:08;;;;;;;10.50;4.43;;;;;;;;;;5010122;28;20712;-67
2022/02/12 09:23:36;;;;;;;9.63;5.07;;;;;;;;;;5001255;28;20050;-66
2022/02/12 09:26:08;;;;;;;8.73;4.50;;;;;;;;;;5009968;28;20137;-67
2022/02/12 09:28:36;;;;;;;8.50;4.40;;;;;;;;;;5011164;28;20116;-67
2022/02/12 09:31:07;;;;;;;10.68;4.50;;;;;;;;;;5010657;28;20046;-66
2022/02/12 09:33:36;;;;;;;10.13;4.78;;;;;;;;;;5011434;28;20455;-66
2022/02/12 09:36:09;;;;;;;7.13;3.65;;;;;;;;;;5008145;28;20050;-66
2022/02/12 09:38:37;;;;;;;7.57;4.22;;;;;;;;;;5009064;28;20100;-67
2022/02/12 09:41:07;;;;;;;8.73;4.28;;;;;;;;;;5011573;28;20045;-66
2022/02/12 09:43:35;;;;;;;10.20;4.55;;;;;;;;;;5009530;28;20526;-66
2022/02/12 09:46:15;;;;;;;9.73;3.85;;;;;;;;;;5010923;28;20064;-65
2022/02/12 09:48:46;;;;;;;9.38;4.15;;;;;;;;;;5009985;28;20395;-65
2022/02/12 09:51:17;;;;;;;9.18;4.10;;;;;;;;;;5011177;28;20041;-65
2022/02/12 09:53:45;;;;;;;10.18;3.90;;;;;;;;;;5010241;28;20050;-66
2022/02/12 09:56:14;;;;;;;7.45;3.92;;;;;;;;;;5005468;28;20062;-67
2022/02/12 09:58:42;;;;;;;7.15;3.35;;;;;;;;;;5007380;28;20054;-65
2022/02/12 10:01:11;;;;;;;7.60;3.22;;;;;;;;;;5008032;28;20077;-66
2022/02/12 10:03:41;;;;;;;7.50;3.03;;;;;;;;;;5006676;28;20506;-65
2022/02/12 10:06:14;;;;;;;4.60;2.37;;;;;;;;;;446955;28;10022730;-66
2022/02/12 10:09:02;;;;;;;8.20;2.58;;;;;;;;;;4990680;28;20312;-66
2022/02/12 10:11:39;;;;;;;6.05;2.88;;;;;;;;;;5005442;28;20092;-66
2022/02/12 10:14:11;;;;;;;5.78;2.65;;;;;;;;;;5007882;28;20529;-70
2022/02/12 10:16:49;;;;;;;7.68;2.55;;;;;;;;;;5008289;28;20082;-70
2022/02/12 10:19:17;;;;;;;9.70;2.40;;;;;;;;;;5008760;28;20045;-70
2022/02/12 10:22:05;;;;;;;5.57;2.40;;;;;;;;;;5009343;28;20073;-69
2022/02/12 10:24:48;;;;;;;4.25;1.85;;;;;;;;;;5008443;28;20129;-69
2022/02/12 10:27:16;;;;;;;8.40;2.20;;;;;;;;;;5008479;28;20073;-70
2022/02/12 10:29:47;;;;;;;4.30;2.05;;;;;;;;;;5008561;28;20050;-70
2022/02/12 10:32:16;;;;;;;2.13;1.42;;;;;;;;;;5010529;28;20088;-69
2022/02/12 10:34:46;;;;;;;5.68;1.50;;;;;;;;;;5010835;28;20136;-70
2022/02/12 10:37:15;;;;;;;3.33;1.27;;;;;;;;;;5007750;28;20050;-69
2022/02/12 10:39:51;;;;;;;2.35;1.33;;;;;;;;;;5009938;28;20069;-70
2022/02/12 10:42:20;;;;;;;2.88;1.60;;;;;;;;;;5007949;28;20449;-69
2022/02/12 10:44:49;;;;;;;6.05;1.55;;;;;;;;;;5002556;28;20046;-69
2022/02/12 10:47:18;;;;;;;3.00;1.23;;;;;;;;;;5006869;28;20453;-69
2022/02/12 10:49:48;;;;;;;2.90;1.40;;;;;;;;;;5009562;28;20057;-69
2022/02/12 10:52:17;;;;;;;4.65;1.40;;;;;;;;;;5009903;28;20057;-69
2022/02/12 10:54:47;;;;;;;1.67;1.23;;;;;;;;;;5010030;28;20045;-70
2022/02/12 10:57:18;;;;;;;1.75;1.40;;;;;;;;;;5009186;28;20049;-69
2022/02/12 10:59:47;;;;;;;3.50;1.20;;;;;;;;;;5010368;28;20128;-70
2022/02/12 11:02:18;;;;;;;2.42;1.38;;;;;;;;;;5010336;28;20458;-69
2022/02/12 11:04:48;;;;;;;5.53;1.65;;;;;;;;;;5001125;28;20478;-70
2022/02/12 11:07:18;;;;;;;5.55;1.52;;;;;;;;;;5009773;28;20077;-69
2022/02/12 11:09:47;;;;;;;2.75;1.83;;;;;;;;;;5009629;28;20054;-69
2022/02/12 11:12:18;;;;;;;7.88;1.90;;;;;;;;;;5009504;28;20050;-69
2022/02/12 11:14:48;;;;;;;3.75;1.98;;;;;;;;;;5009353;28;20041;-69
2022/02/12 11:17:17;;;;;;;4.82;2.47;;;;;;;;;;5009951;28;20045;-69
2022/02/12 11:19:47;;;;;;;2.92;1.52;;;;;;;;;;5009584;28;20045;-70
2022/02/12 11:22:16;;;;;;;7.53;2.10;;;;;;;;;;5009710;28;20096;-69
2022/02/12 11:24:46;;;;;;;2.25;1.42;;;;;;;;;;5007689;28;20057;-71
2022/02/12 11:27:20;;;;;;;3.30;1.90;;;;;;;;;;5005527;28;20042;-70
2022/02/12 11:29:52;;;;;;;5.22;1.55;;;;;;;;;;5007184;28;20140;-69
2022/02/12 11:32:23;;;;;;;4.28;1.50;;;;;;;;;;5007567;28;20052;-69
2022/02/12 11:35:09;;;;;;;4.07;2.10;;;;;;;;;;5007401;28;20073;-69
2022/02/12 11:37:38;;;;;;;4.03;1.63;;;;;;;;;;4998988;28;20406;-69
2022/02/12 11:40:11;;;;;;;4.38;1.52;;;;;;;;;;5006225;28;20057;-70
2022/02/12 11:42:43;;;;;;;2.33;1.58;;;;;;;;;;5006172;28;20046;-69
2022/02/12 11:45:33;;;;;;;3.40;2.08;;;;;;;;;;5009000;28;20042;-69
2022/02/12 11:48:12;;;;;;;3.28;1.20;;;;;;;;;;5006155;28;20505;-69
2022/02/12 11:50:45;;;;;;;4.07;1.85;;;;;;;;;;5008281;28;20533;-69
2022/02/12 11:53:30;;;;;;;2.72;1.35;;;;;;;;;;5009636;28;20417;-69
2022/02/12 11:55:58;;;;;;;3.58;1.60;;;;;;;;;;5005140;28;20345;-69
2022/02/12 11:58:46;;;;;;;2.13;1.50;;;;;;;;;;5009797;28;20112;-70
2022/02/12 12:01:32;;;;;;;2.58;1.58;;;;;;;;;;5008704;28;20042;-69
2022/02/12 12:04:06;;;;;;;2.33;1.13;;;;;;;;;;5006519;28;20092;-69
2022/02/12 12:06:35;;;;;;;3.05;1.63;;;;;;;;;;5008236;28;20045;-70
2022/02/12 12:09:07;;;;;;;6.32;2.28;;;;;;;;;;5007434;28;20061;-70
2022/02/12 12:11:36;;;;;;;4.07;2.00;;;;;;;;;;4998254;28;20099;-70
2022/02/12 12:14:20;;;;;;;5.90;1.80;;;;;;;;;;5007623;28;20140;-70
2022/02/12 12:16:53;;;;;;;4.10;1.85;;;;;;;;;;5008026;28;20072;-70
2022/02/12 12:19:27;;;;;;;5.13;2.20;;;;;;;;;;5009531;28;20105;-71
2022/02/12 12:21:56;;;;;;;5.68;1.73;;;;;;;;;;5010334;28;20046;-70
2022/02/12 12:24:26;;;;;;;4.57;1.80;;;;;;;;;;5006799;28;20062;-67
2022/02/12 12:26:55;;;;;;;5.30;2.00;;;;;;;;;;5005709;28;20041;-66
2022/02/12 12:32:13;;;;;;;4.00;1.50;;;;;;;;;;5008241;28;20134;-67
2022/02/12 12:34:52;;;;;;;4.65;2.17;;;;;;;;;;4998341;28;20133;-69
2022/02/12 12:37:21;;;;;;;5.28;2.20;;;;;;;;;;5006915;28;20064;-67
2022/02/12 12:39:50;;;;;;;5.40;2.47;;;;;;;;;;5005539;28;20078;-67
2022/02/12 12:42:20;;;;;;;5.85;2.17;;;;;;;;;;5007258;28;20050;-67
2022/02/12 12:45:11;;;;;;;6.93;2.40;;;;;;;;;;5006241;28;20643;-67
2022/02/12 12:47:48;;;;;;;7.68;2.67;;;;;;;;;;5004297;28;20060;-68
2022/02/12 12:50:19;;;;;;;4.32;2.20;;;;;;;;;;5007067;28;20056;-69
2022/02/12 12:52:48;;;;;;;10.75;2.63;;;;;;;;;;5007452;28;20050;-66
2022/02/12 12:55:18;;;;;;;4.63;2.30;;;;;;;;;;5007415;28;20130;-67
2022/02/12 12:57:47;;;;;;;6.35;2.33;;;;;;;;;;5006581;28;20054;-67
2022/02/12 13:00:17;;;;;;;5.30;2.35;;;;;;;;;;5005807;28;20133;-67
2022/02/12 13:02:50;;;;;;;4.55;2.58;;;;;;;;;;5005220;28;20482;-68
2022/02/12 13:05:24;;;;;;;3.60;2.20;;;;;;;;;;5001805;28;20128;-67
2022/02/12 13:07:54;;;;;;;4.78;2.17;;;;;;;;;;5002111;28;20486;-67
2022/02/12 13:10:24;;;;;;;6.82;2.30;;;;;;;;;;5007314;28;20054;-68
2022/02/12 13:13:08;;;;;;;;;;;;;;;;;;2518062;28;10003131;-68
2022/02/12 13:15:37;;;;;;;7.03;2.70;;;;;;;;;;3625147;28;10001197;-67
2022/02/12 13:18:07;;;;;;;2.67;2.13;;;;;;;;;;5008468;28;20513;-67
2022/02/12 13:20:38;;;;;;;5.32;2.28;;;;;;;;;;5008680;28;20049;-66
2022/02/12 13:23:08;;;;;;;10.73;2.88;;;;;;;;;;5010791;28;20045;-67
2022/02/12 13:25:39;;;;;;;5.22;2.70;;;;;;;;;;5010517;28;20060;-65
2022/02/12 13:28:08;;;;;;;5.15;2.50;;;;;;;;;;4991678;28;20057;-65
2022/02/12 13:30:37;;;;;;;8.75;2.90;;;;;;;;;;5011278;28;20074;-66
2022/02/12 13:33:06;;;;;;;4.47;2.35;;;;;;;;;;5010133;28;20077;-66
2022/02/12 13:35:36;;;;;;;6.53;2.88;;;;;;;;;;5010303;28;20658;-66
2022/02/12 13:38:07;;;;;;;7.00;3.10;;;;;;;;;;4999456;28;20046;-66
2022/02/12 13:40:36;;;;;;;7.07;2.20;;;;;;;;;;5005334;28;20062;-66
2022/02/12 13:43:06;;;;;;;8.45;2.45;;;;;;;;;;5007308;28;20231;-66
2022/02/12 13:45:38;;;;;;;4.07;2.20;;;;;;;;;;5007941;28;20132;-67
2022/02/12 13:48:08;;;;;;;4.47;2.20;;;;;;;;;;5008077;28;20068;-66
2022/02/12 13:50:39;;;;;;;7.35;2.30;;;;;;;;;;5010801;28;20085;-67
2022/02/12 13:53:11;;;;;;;6.25;2.28;;;;;;;;;;5007889;28;20399;-67
2022/02/12 13:55:47;;;;;;;7.05;2.30;;;;;;;;;;5005110;28;20057;-66
2022/02/12 13:58:16;;;;;;;6.10;2.70;;;;;;;;;;5009047;28;20470;-67
2022/02/12 14:00:44;;;;;;;9.23;2.25;;;;;;;;;;5007580;28;20157;-68
2022/02/12 14:03:29;;;;;;;6.82;2.58;;;;;;;;;;5007725;28;20046;-67
2022/02/12 14:05:58;;;;;;;3.42;2.13;;;;;;;;;;5009527;28;20524;-67
2022/02/12 14:08:33;;;;;;;6.42;2.18;;;;;;;;;;4783796;28;10001320;-67
2022/02/12 14:11:10;;;;;;;5.78;2.05;;;;;;;;;;689662;28;10001941;-68
2022/02/12 14:13:38;;;;;;;5.53;2.72;;;;;;;;;;5009141;28;20116;-67
2022/02/12 14:16:06;;;;;;;7.05;2.13;;;;;;;;;;5015229;28;20064;-67
2022/02/12 14:18:35;;;;;;;4.40;2.17;;;;;;;;;;5015127;28;20081;-67
2022/02/12 14:21:07;;;;;;;3.15;2.00;;;;;;;;;;5007751;28;20129;-67
2022/02/12 14:23:37;;;;;;;3.97;2.22;;;;;;;;;;5009782;28;20054;-67
2022/02/12 14:26:08;;;;;;;4.13;2.17;;;;;;;;;;5010074;28;20656;-67
2022/02/12 14:28:37;;;;;;;2.85;1.83;;;;;;;;;;5004934;28;20675;-67
2022/02/12 14:31:06;;;;;;;4.40;2.17;;;;;;;;;;5009663;28;20069;-68
2022/02/12 14:33:34;;;;;;;4.72;1.88;;;;;;;;;;5009564;28;20065;-67
2022/02/12 14:36:06;;;;;;;4.00;2.22;;;;;;;;;;5010557;28;20112;-67
2022/02/12 14:38:36;;;;;;;4.25;2.00;;;;;;;;;;5008676;28;20057;-67
2022/02/12 14:41:11;;;;;;;4.90;1.98;;;;;;;;;;5007008;28;20137;-68
2022/02/12 14:43:39;;;;;;;4.57;2.17;;;;;;;;;;5009742;28;20060;-67
2022/02/12 14:46:09;;;;;;;5.57;2.38;;;;;;;;;;5007676;28;20049;-67
2022/02/12 14:48:37;;;;;;;6.03;2.05;;;;;;;;;;5009272;28;20536;-67
2022/02/12 14:51:06;;;;;;;9.18;2.58;;;;;;;;;;5009415;28;20053;-67
2022/02/12 14:53:48;;;;;;;4.25;2.30;;;;;;;;;;5010153;28;20394;-67
2022/02/12 14:56:17;;;;;;;3.03;1.98;;;;;;;;;;5007992;28;20577;-67
2022/02/12 14:58:46;;;;;;;3.55;1.85;;;;;;;;;;5008505;28;20140;-67
2022/02/12 15:01:14;;;;;;;5.10;1.67;;;;;;;;;;5005537;28;20058;-67
2022/02/12 15:03:43;;;;;;;3.08;1.60;;;;;;;;;;5009821;28;20100;-67
2022/02/12 15:06:11;;;;;;;3.03;1.45;;;;;;;;;;5009131;28;20049;-67